FLKK

Kenneth Kaunda International Airport

Lusaka, Zambia
METAR FLKK 210600Z 11005KT CAVOK 15/11 Q1023
Observed Flight Rules
May-21 @ 06:00 UTC (an hour ago) Visual Flight Rules
Wind Visibility Clouds
110° at 5 knots 10,000+ meters
  • Clear skies
Temperatures Readings
Current 15°C / 59°F
Dewpoint 11°C / 52°F
Humidity 77%
Altimeter 30.21" Hg
Pressure 1023 hPa
Elevation 1154
METAR FLKK 210600Z 11005KT CAVOK 15/11 Q1023
Observed Flight Rules
May-21 @ 06:00 UTC
(an hour ago)
VFR
Wind Visibility
110° at 5 knots 10,000+ meters
Clouds
  • Clear skies
Temperature Dewpoint
15°C / 59°F 11°C / 52°F
Humidity Altimeter Pressure
77% 30.21" Hg 1023 hPa